sensor_id;sensor_type;location;lat;lon;timestamp;P1;durP1;ratioP1;P2;durP2;ratioP2
75963;SDS011;65820;44.726;37.764;2023-02-01T00:00:47;5.38;;;2.15;;
75963;SDS011;65820;44.726;37.764;2023-02-01T00:01:48;5.55;;;2.72;;
75963;SDS011;65820;44.726;37.764;2023-02-01T00:02:50;5.40;;;2.58;;
75963;SDS011;65820;44.726;37.764;2023-02-01T00:03:51;4.78;;;2.45;;
75963;SDS011;65820;44.726;37.764;2023-02-01T00:04:52;5.38;;;2.42;;
75963;SDS011;65820;44.726;37.764;2023-02-01T00:05:56;4.47;;;2.30;;
75963;SDS011;65820;44.726;37.764;2023-02-01T00:08:35;4.93;;;2.30;;
75963;SDS011;65820;44.726;37.764;2023-02-01T00:12:15;4.90;;;2.15;;
75963;SDS011;65820;44.726;37.764;2023-02-01T00:13:17;4.95;;;2.75;;
75963;SDS011;65820;44.726;37.764;2023-02-01T00:14:18;6.10;;;2.85;;
75963;SDS011;65820;44.726;37.764;2023-02-01T00:15:19;6.43;;;2.63;;
75963;SDS011;65820;44.726;37.764;2023-02-01T00:16:22;5.30;;;2.53;;
75963;SDS011;65820;44.726;37.764;2023-02-01T00:17:25;5.45;;;2.70;;
75963;SDS011;65820;44.726;37.764;2023-02-01T00:18:26;5.50;;;2.63;;
75963;SDS011;65820;44.726;37.764;2023-02-01T00:20:16;5.53;;;2.47;;
75963;SDS011;65820;44.726;37.764;2023-02-01T00:21:18;5.13;;;2.38;;
75963;SDS011;65820;44.726;37.764;2023-02-01T00:25:15;5.50;;;2.47;;
75963;SDS011;65820;44.726;37.764;2023-02-01T00:27:04;5.30;;;2.50;;
75963;SDS011;65820;44.726;37.764;2023-02-01T00:29:23;4.72;;;2.00;;
75963;SDS011;65820;44.726;37.764;2023-02-01T00:30:25;4.20;;;2.17;;
75963;SDS011;65820;44.726;37.764;2023-02-01T00:32:14;5.75;;;2.72;;
75963;SDS011;65820;44.726;37.764;2023-02-01T00:36:03;4.55;;;2.30;;
75963;SDS011;65820;44.726;37.764;2023-02-01T00:38:25;4.68;;;2.25;;
75963;SDS011;65820;44.726;37.764;2023-02-01T00:41:03;4.93;;;2.10;;
75963;SDS011;65820;44.726;37.764;2023-02-01T00:42:13;4.28;;;1.85;;
75963;SDS011;65820;44.726;37.764;2023-02-01T00:44:02;5.40;;;2.40;;
75963;SDS011;65820;44.726;37.764;2023-02-01T00:45:04;5.07;;;2.38;;
75963;SDS011;65820;44.726;37.764;2023-02-01T00:52:17;4.82;;;2.50;;
75963;SDS011;65820;44.726;37.764;2023-02-01T00:55:47;5.55;;;2.60;;
75963;SDS011;65820;44.726;37.764;2023-02-01T00:58:55;5.22;;;2.40;;
75963;SDS011;65820;44.726;37.764;2023-02-01T01:01:32;4.72;;;2.17;;
75963;SDS011;65820;44.726;37.764;2023-02-01T01:02:34;4.15;;;1.90;;
75963;SDS011;65820;44.726;37.764;2023-02-01T01:03:37;5.07;;;2.25;;
75963;SDS011;65820;44.726;37.764;2023-02-01T01:04:40;4.88;;;2.45;;
75963;SDS011;65820;44.726;37.764;2023-02-01T01:06:37;6.20;;;2.35;;
75963;SDS011;65820;44.726;37.764;2023-02-01T01:08:34;4.63;;;1.98;;
75963;SDS011;65820;44.726;37.764;2023-02-01T01:15:29;4.55;;;2.03;;
75963;SDS011;65820;44.726;37.764;2023-02-01T01:17:18;5.78;;;2.03;;
75963;SDS011;65820;44.726;37.764;2023-02-01T01:19:08;4.32;;;2.15;;
75963;SDS011;65820;44.726;37.764;2023-02-01T01:20:58;5.70;;;2.80;;
75963;SDS011;65820;44.726;37.764;2023-02-01T01:22:48;4.40;;;2.10;;
75963;SDS011;65820;44.726;37.764;2023-02-01T01:24:37;4.55;;;1.95;;
75963;SDS011;65820;44.726;37.764;2023-02-01T01:25:39;5.07;;;2.20;;
75963;SDS011;65820;44.726;37.764;2023-02-01T01:27:36;5.25;;;2.63;;
75963;SDS011;65820;44.726;37.764;2023-02-01T01:28:40;4.93;;;2.35;;
75963;SDS011;65820;44.726;37.764;2023-02-01T01:30:29;5.97;;;2.63;;
75963;SDS011;65820;44.726;37.764;2023-02-01T01:32:19;5.93;;;2.33;;
75963;SDS011;65820;44.726;37.764;2023-02-01T01:33:20;4.57;;;2.30;;
75963;SDS011;65820;44.726;37.764;2023-02-01T01:34:22;4.88;;;2.15;;
75963;SDS011;65820;44.726;37.764;2023-02-01T01:35:24;4.40;;;2.10;;
75963;SDS011;65820;44.726;37.764;2023-02-01T01:36:26;4.30;;;2.00;;
75963;SDS011;65820;44.726;37.764;2023-02-01T01:37:28;4.57;;;2.33;;
75963;SDS011;65820;44.726;37.764;2023-02-01T01:40:28;5.30;;;2.22;;
75963;SDS011;65820;44.726;37.764;2023-02-01T01:46:03;4.15;;;2.10;;
75963;SDS011;65820;44.726;37.764;2023-02-01T01:47:04;4.45;;;2.10;;
75963;SDS011;65820;44.726;37.764;2023-02-01T01:48:13;5.05;;;2.10;;
75963;SDS011;65820;44.726;37.764;2023-02-01T01:49:29;5.13;;;2.20;;
75963;SDS011;65820;44.726;37.764;2023-02-01T01:50:33;5.45;;;2.30;;
75963;SDS011;65820;44.726;37.764;2023-02-01T01:51:42;4.63;;;2.03;;
75963;SDS011;65820;44.726;37.764;2023-02-01T01:52:48;3.78;;;1.80;;
75963;SDS011;65820;44.726;37.764;2023-02-01T01:55:29;5.15;;;2.20;;
75963;SDS011;65820;44.726;37.764;2023-02-01T01:56:34;4.82;;;2.10;;
75963;SDS011;65820;44.726;37.764;2023-02-01T02:00:05;4.40;;;1.80;;
75963;SDS011;65820;44.726;37.764;2023-02-01T02:01:18;5.32;;;2.45;;
75963;SDS011;65820;44.726;37.764;2023-02-01T02:03:56;5.20;;;2.63;;
75963;SDS011;65820;44.726;37.764;2023-02-01T02:07:49;4.60;;;2.25;;
75963;SDS011;65820;44.726;37.764;2023-02-01T02:08:53;4.38;;;1.90;;
75963;SDS011;65820;44.726;37.764;2023-02-01T02:09:54;3.85;;;1.88;;
75963;SDS011;65820;44.726;37.764;2023-02-01T02:10:56;4.47;;;2.00;;
75963;SDS011;65820;44.726;37.764;2023-02-01T02:12:00;4.40;;;2.28;;
75963;SDS011;65820;44.726;37.764;2023-02-01T02:13:01;5.18;;;1.92;;
75963;SDS011;65820;44.726;37.764;2023-02-01T02:14:03;5.07;;;2.40;;
75963;SDS011;65820;44.726;37.764;2023-02-01T02:15:11;4.60;;;1.77;;
75963;SDS011;65820;44.726;37.764;2023-02-01T02:16:41;5.00;;;2.15;;
75963;SDS011;65820;44.726;37.764;2023-02-01T02:18:05;4.25;;;2.00;;
75963;SDS011;65820;44.726;37.764;2023-02-01T02:35:59;5.00;;;2.40;;
75963;SDS011;65820;44.726;37.764;2023-02-01T02:38:02;4.20;;;1.90;;
75963;SDS011;65820;44.726;37.764;2023-02-01T02:40:32;5.13;;;2.10;;
75963;SDS011;65820;44.726;37.764;2023-02-01T02:45:06;4.90;;;2.42;;
75963;SDS011;65820;44.726;37.764;2023-02-01T02:46:36;5.57;;;2.78;;
75963;SDS011;65820;44.726;37.764;2023-02-01T02:49:46;4.80;;;2.55;;
75963;SDS011;65820;44.726;37.764;2023-02-01T02:51:14;4.55;;;2.20;;
75963;SDS011;65820;44.726;37.764;2023-02-01T02:52:46;4.85;;;2.10;;
75963;SDS011;65820;44.726;37.764;2023-02-01T02:55:04;4.32;;;1.90;;
75963;SDS011;65820;44.726;37.764;2023-02-01T02:56:09;4.55;;;2.30;;
75963;SDS011;65820;44.726;37.764;2023-02-01T02:57:31;4.30;;;2.00;;
75963;SDS011;65820;44.726;37.764;2023-02-01T02:58:55;4.47;;;1.98;;
75963;SDS011;65820;44.726;37.764;2023-02-01T03:00:18;4.60;;;2.20;;
75963;SDS011;65820;44.726;37.764;2023-02-01T03:01:40;4.25;;;1.90;;
75963;SDS011;65820;44.726;37.764;2023-02-01T03:03:01;4.68;;;2.00;;
75963;SDS011;65820;44.726;37.764;2023-02-01T03:04:22;5.95;;;1.90;;
75963;SDS011;65820;44.726;37.764;2023-02-01T03:05:24;4.85;;;2.30;;
75963;SDS011;65820;44.726;37.764;2023-02-01T03:06:26;6.35;;;2.00;;
75963;SDS011;65820;44.726;37.764;2023-02-01T03:10:26;4.50;;;1.88;;
75963;SDS011;65820;44.726;37.764;2023-02-01T03:11:48;4.60;;;2.10;;
75963;SDS011;65820;44.726;37.764;2023-02-01T03:13:14;5.60;;;1.98;;
75963;SDS011;65820;44.726;37.764;2023-02-01T03:14:21;4.22;;;1.80;;
75963;SDS011;65820;44.726;37.764;2023-02-01T03:15:27;4.78;;;2.05;;
75963;SDS011;65820;44.726;37.764;2023-02-01T03:17:00;3.65;;;1.80;;
75963;SDS011;65820;44.726;37.764;2023-02-01T03:18:10;4.45;;;1.88;;
75963;SDS011;65820;44.726;37.764;2023-02-01T03:19:22;5.45;;;2.47;;
75963;SDS011;65820;44.726;37.764;2023-02-01T03:20:24;5.18;;;2.58;;
75963;SDS011;65820;44.726;37.764;2023-02-01T03:22:59;5.22;;;2.17;;
75963;SDS011;65820;44.726;37.764;2023-02-01T03:24:02;4.80;;;1.95;;
75963;SDS011;65820;44.726;37.764;2023-02-01T03:25:10;5.20;;;1.95;;
75963;SDS011;65820;44.726;37.764;2023-02-01T03:26:19;4.47;;;2.20;;
75963;SDS011;65820;44.726;37.764;2023-02-01T03:27:30;3.75;;;1.90;;
75963;SDS011;65820;44.726;37.764;2023-02-01T03:29:28;4.43;;;1.73;;
75963;SDS011;65820;44.726;37.764;2023-02-01T03:30:39;4.68;;;1.90;;
75963;SDS011;65820;44.726;37.764;2023-02-01T03:31:45;4.57;;;2.20;;
75963;SDS011;65820;44.726;37.764;2023-02-01T03:32:50;4.22;;;1.90;;
75963;SDS011;65820;44.726;37.764;2023-02-01T03:34:03;3.88;;;1.70;;
75963;SDS011;65820;44.726;37.764;2023-02-01T03:36:02;5.22;;;1.92;;
75963;SDS011;65820;44.726;37.764;2023-02-01T03:37:17;4.38;;;1.80;;
75963;SDS011;65820;44.726;37.764;2023-02-01T03:38:33;4.30;;;1.80;;
75963;SDS011;65820;44.726;37.764;2023-02-01T03:39:50;3.85;;;1.70;;
75963;SDS011;65820;44.726;37.764;2023-02-01T03:42:51;4.50;;;1.63;;
75963;SDS011;65820;44.726;37.764;2023-02-01T03:45:27;4.53;;;1.90;;
75963;SDS011;65820;44.726;37.764;2023-02-01T03:46:30;3.35;;;1.58;;
75963;SDS011;65820;44.726;37.764;2023-02-01T03:47:41;4.13;;;1.60;;
75963;SDS011;65820;44.726;37.764;2023-02-01T03:48:44;3.85;;;1.63;;
75963;SDS011;65820;44.726;37.764;2023-02-01T03:50:51;3.65;;;1.58;;
75963;SDS011;65820;44.726;37.764;2023-02-01T03:51:54;4.03;;;1.70;;
75963;SDS011;65820;44.726;37.764;2023-02-01T03:53:07;3.97;;;1.67;;
75963;SDS011;65820;44.726;37.764;2023-02-01T03:54:19;3.47;;;1.65;;
75963;SDS011;65820;44.726;37.764;2023-02-01T03:55:21;3.85;;;1.50;;
75963;SDS011;65820;44.726;37.764;2023-02-01T03:56:24;3.65;;;1.63;;
75963;SDS011;65820;44.726;37.764;2023-02-01T03:58:16;4.65;;;1.80;;
75963;SDS011;65820;44.726;37.764;2023-02-01T03:59:19;3.58;;;2.00;;
75963;SDS011;65820;44.726;37.764;2023-02-01T04:00:22;4.15;;;2.20;;
75963;SDS011;65820;44.726;37.764;2023-02-01T04:01:26;3.20;;;1.45;;
75963;SDS011;65820;44.726;37.764;2023-02-01T04:02:29;4.30;;;1.88;;
75963;SDS011;65820;44.726;37.764;2023-02-01T04:03:30;4.35;;;2.03;;
75963;SDS011;65820;44.726;37.764;2023-02-01T04:04:33;3.55;;;1.90;;
75963;SDS011;65820;44.726;37.764;2023-02-01T04:05:35;5.15;;;2.10;;
75963;SDS011;65820;44.726;37.764;2023-02-01T04:06:40;4.65;;;1.95;;
75963;SDS011;65820;44.726;37.764;2023-02-01T04:08:31;4.07;;;1.80;;
75963;SDS011;65820;44.726;37.764;2023-02-01T04:09:33;3.80;;;1.65;;
75963;SDS011;65820;44.726;37.764;2023-02-01T04:10:34;4.75;;;1.70;;
75963;SDS011;65820;44.726;37.764;2023-02-01T04:11:35;5.03;;;1.70;;
75963;SDS011;65820;44.726;37.764;2023-02-01T04:13:25;4.88;;;1.80;;
75963;SDS011;65820;44.726;37.764;2023-02-01T04:14:26;8.20;;;1.92;;
75963;SDS011;65820;44.726;37.764;2023-02-01T04:15:27;3.35;;;1.40;;
75963;SDS011;65820;44.726;37.764;2023-02-01T04:17:17;6.05;;;1.77;;
75963;SDS011;65820;44.726;37.764;2023-02-01T04:18:19;3.42;;;1.67;;
75963;SDS011;65820;44.726;37.764;2023-02-01T04:19:20;6.35;;;1.85;;
75963;SDS011;65820;44.726;37.764;2023-02-01T04:20:21;3.72;;;1.70;;
75963;SDS011;65820;44.726;37.764;2023-02-01T04:21:23;4.57;;;1.70;;
75963;SDS011;65820;44.726;37.764;2023-02-01T04:22:25;4.03;;;1.52;;
75963;SDS011;65820;44.726;37.764;2023-02-01T04:23:32;7.13;;;1.90;;
75963;SDS011;65820;44.726;37.764;2023-02-01T04:24:33;6.80;;;1.92;;
75963;SDS011;65820;44.726;37.764;2023-02-01T04:25:38;6.72;;;1.70;;
75963;SDS011;65820;44.726;37.764;2023-02-01T04:26:39;5.75;;;1.88;;
75963;SDS011;65820;44.726;37.764;2023-02-01T04:27:40;5.63;;;1.60;;
75963;SDS011;65820;44.726;37.764;2023-02-01T04:28:42;6.75;;;1.80;;
75963;SDS011;65820;44.726;37.764;2023-02-01T04:29:43;7.28;;;1.80;;
75963;SDS011;65820;44.726;37.764;2023-02-01T04:30:45;5.05;;;1.90;;
75963;SDS011;65820;44.726;37.764;2023-02-01T04:31:47;10.05;;;1.35;;
75963;SDS011;65820;44.726;37.764;2023-02-01T04:32:49;6.40;;;1.90;;
75963;SDS011;65820;44.726;37.764;2023-02-01T04:33:51;3.47;;;1.60;;
75963;SDS011;65820;44.726;37.764;2023-02-01T04:34:53;5.60;;;1.70;;
75963;SDS011;65820;44.726;37.764;2023-02-01T04:35:55;5.22;;;1.90;;
75963;SDS011;65820;44.726;37.764;2023-02-01T04:36:56;3.88;;;1.70;;
75963;SDS011;65820;44.726;37.764;2023-02-01T04:37:58;4.75;;;1.40;;
75963;SDS011;65820;44.726;37.764;2023-02-01T04:38:59;6.88;;;1.77;;
75963;SDS011;65820;44.726;37.764;2023-02-01T04:40:00;4.90;;;1.75;;
75963;SDS011;65820;44.726;37.764;2023-02-01T04:41:04;5.53;;;1.75;;
75963;SDS011;65820;44.726;37.764;2023-02-01T04:42:05;4.85;;;1.77;;
75963;SDS011;65820;44.726;37.764;2023-02-01T04:43:07;5.28;;;1.83;;
75963;SDS011;65820;44.726;37.764;2023-02-01T04:44:13;4.47;;;1.77;;
75963;SDS011;65820;44.726;37.764;2023-02-01T04:45:16;5.90;;;1.65;;
75963;SDS011;65820;44.726;37.764;2023-02-01T04:46:17;5.18;;;2.08;;
75963;SDS011;65820;44.726;37.764;2023-02-01T04:48:07;6.13;;;1.65;;
75963;SDS011;65820;44.726;37.764;2023-02-01T04:49:11;4.97;;;1.35;;
75963;SDS011;65820;44.726;37.764;2023-02-01T04:50:14;5.75;;;1.38;;
75963;SDS011;65820;44.726;37.764;2023-02-01T04:51:16;3.22;;;1.30;;
75963;SDS011;65820;44.726;37.764;2023-02-01T04:52:18;4.57;;;1.90;;
75963;SDS011;65820;44.726;37.764;2023-02-01T04:53:19;5.25;;;1.45;;
75963;SDS011;65820;44.726;37.764;2023-02-01T04:54:23;4.90;;;1.48;;
75963;SDS011;65820;44.726;37.764;2023-02-01T04:55:24;6.38;;;1.55;;
75963;SDS011;65820;44.726;37.764;2023-02-01T04:56:26;3.47;;;1.30;;
75963;SDS011;65820;44.726;37.764;2023-02-01T04:57:27;4.88;;;1.40;;
75963;SDS011;65820;44.726;37.764;2023-02-01T04:58:28;5.03;;;1.63;;
75963;SDS011;65820;44.726;37.764;2023-02-01T04:59:30;5.78;;;1.10;;
75963;SDS011;65820;44.726;37.764;2023-02-01T05:00:31;5.65;;;1.70;;
75963;SDS011;65820;44.726;37.764;2023-02-01T05:01:32;6.13;;;1.45;;
75963;SDS011;65820;44.726;37.764;2023-02-01T05:02:34;3.75;;;1.35;;
75963;SDS011;65820;44.726;37.764;2023-02-01T05:03:35;5.28;;;1.45;;
75963;SDS011;65820;44.726;37.764;2023-02-01T05:04:39;5.65;;;2.00;;
75963;SDS011;65820;44.726;37.764;2023-02-01T05:05:41;4.68;;;1.60;;
75963;SDS011;65820;44.726;37.764;2023-02-01T05:06:42;4.57;;;1.50;;
75963;SDS011;65820;44.726;37.764;2023-02-01T05:07:44;2.97;;;1.17;;
75963;SDS011;65820;44.726;37.764;2023-02-01T05:09:48;5.63;;;1.80;;
75963;SDS011;65820;44.726;37.764;2023-02-01T05:10:51;4.40;;;1.23;;
75963;SDS011;65820;44.726;37.764;2023-02-01T05:11:53;7.22;;;1.25;;
75963;SDS011;65820;44.726;37.764;2023-02-01T05:13:13;4.53;;;1.45;;
75963;SDS011;65820;44.726;37.764;2023-02-01T05:14:32;3.28;;;1.00;;
75963;SDS011;65820;44.726;37.764;2023-02-01T05:15:34;5.18;;;1.30;;
75963;SDS011;65820;44.726;37.764;2023-02-01T05:16:35;4.28;;;1.33;;
75963;SDS011;65820;44.726;37.764;2023-02-01T05:17:37;4.00;;;1.40;;
75963;SDS011;65820;44.726;37.764;2023-02-01T05:18:40;3.78;;;1.50;;
75963;SDS011;65820;44.726;37.764;2023-02-01T05:19:42;3.40;;;1.63;;
75963;SDS011;65820;44.726;37.764;2023-02-01T05:20:43;4.00;;;1.83;;
75963;SDS011;65820;44.726;37.764;2023-02-01T05:21:45;5.18;;;1.75;;
75963;SDS011;65820;44.726;37.764;2023-02-01T05:22:46;5.00;;;1.40;;
75963;SDS011;65820;44.726;37.764;2023-02-01T05:23:47;3.80;;;1.30;;
75963;SDS011;65820;44.726;37.764;2023-02-01T05:25:07;3.80;;;1.77;;
75963;SDS011;65820;44.726;37.764;2023-02-01T05:26:08;5.72;;;1.60;;
75963;SDS011;65820;44.726;37.764;2023-02-01T05:27:10;5.05;;;1.60;;
75963;SDS011;65820;44.726;37.764;2023-02-01T05:28:11;5.00;;;1.52;;
75963;SDS011;65820;44.726;37.764;2023-02-01T05:29:15;4.18;;;1.40;;
75963;SDS011;65820;44.726;37.764;2023-02-01T05:30:18;6.18;;;1.30;;
75963;SDS011;65820;44.726;37.764;2023-02-01T05:32:09;4.35;;;0.98;;
75963;SDS011;65820;44.726;37.764;2023-02-01T05:34:12;3.03;;;1.20;;
75963;SDS011;65820;44.726;37.764;2023-02-01T05:35:13;5.25;;;1.40;;
75963;SDS011;65820;44.726;37.764;2023-02-01T05:36:15;3.28;;;1.20;;
75963;SDS011;65820;44.726;37.764;2023-02-01T05:37:16;2.90;;;1.30;;
75963;SDS011;65820;44.726;37.764;2023-02-01T05:38:17;4.22;;;1.25;;
75963;SDS011;65820;44.726;37.764;2023-02-01T05:39:19;5.25;;;1.30;;
75963;SDS011;65820;44.726;37.764;2023-02-01T05:40:20;4.00;;;1.10;;
75963;SDS011;65820;44.726;37.764;2023-02-01T05:41:22;2.70;;;1.30;;
75963;SDS011;65820;44.726;37.764;2023-02-01T05:42:23;3.38;;;1.27;;
75963;SDS011;65820;44.726;37.764;2023-02-01T05:43:25;3.83;;;1.45;;
75963;SDS011;65820;44.726;37.764;2023-02-01T05:44:26;4.38;;;1.45;;
75963;SDS011;65820;44.726;37.764;2023-02-01T05:46:15;3.63;;;1.40;;
75963;SDS011;65820;44.726;37.764;2023-02-01T05:47:17;4.70;;;1.23;;
75963;SDS011;65820;44.726;37.764;2023-02-01T05:48:18;3.80;;;1.30;;
75963;SDS011;65820;44.726;37.764;2023-02-01T05:49:20;4.55;;;1.27;;
75963;SDS011;65820;44.726;37.764;2023-02-01T05:50:21;4.00;;;1.20;;
75963;SDS011;65820;44.726;37.764;2023-02-01T05:51:30;5.38;;;1.30;;
75963;SDS011;65820;44.726;37.764;2023-02-01T05:52:32;2.60;;;1.20;;
75963;SDS011;65820;44.726;37.764;2023-02-01T05:53:33;2.97;;;1.20;;
75963;SDS011;65820;44.726;37.764;2023-02-01T05:54:34;4.47;;;1.33;;
75963;SDS011;65820;44.726;37.764;2023-02-01T05:55:36;5.47;;;1.40;;
75963;SDS011;65820;44.726;37.764;2023-02-01T05:56:37;3.65;;;1.33;;
75963;SDS011;65820;44.726;37.764;2023-02-01T05:57:41;4.07;;;1.10;;
75963;SDS011;65820;44.726;37.764;2023-02-01T05:58:42;4.05;;;1.60;;
75963;SDS011;65820;44.726;37.764;2023-02-01T05:59:44;3.03;;;1.20;;
75963;SDS011;65820;44.726;37.764;2023-02-01T06:00:46;2.85;;;1.02;;
75963;SDS011;65820;44.726;37.764;2023-02-01T06:01:47;4.90;;;1.50;;
75963;SDS011;65820;44.726;37.764;2023-02-01T06:02:48;3.75;;;1.40;;
75963;SDS011;65820;44.726;37.764;2023-02-01T06:03:50;3.92;;;1.02;;
75963;SDS011;65820;44.726;37.764;2023-02-01T06:04:51;4.13;;;1.33;;
75963;SDS011;65820;44.726;37.764;2023-02-01T06:05:52;3.72;;;1.25;;
75963;SDS011;65820;44.726;37.764;2023-02-01T06:06:54;2.80;;;1.00;;
75963;SDS011;65820;44.726;37.764;2023-02-01T06:07:55;3.30;;;1.20;;
75963;SDS011;65820;44.726;37.764;2023-02-01T06:08:57;3.63;;;1.20;;
75963;SDS011;65820;44.726;37.764;2023-02-01T06:09:59;3.42;;;1.30;;
75963;SDS011;65820;44.726;37.764;2023-02-01T06:11:01;4.63;;;1.60;;
75963;SDS011;65820;44.726;37.764;2023-02-01T06:12:05;4.18;;;1.10;;
75963;SDS011;65820;44.726;37.764;2023-02-01T06:13:07;2.65;;;1.00;;
75963;SDS011;65820;44.726;37.764;2023-02-01T06:14:09;3.08;;;1.13;;
75963;SDS011;65820;44.726;37.764;2023-02-01T06:15:11;3.75;;;1.30;;
75963;SDS011;65820;44.726;37.764;2023-02-01T06:16:13;3.55;;;1.38;;
75963;SDS011;65820;44.726;37.764;2023-02-01T06:17:16;3.35;;;1.05;;
75963;SDS011;65820;44.726;37.764;2023-02-01T06:18:17;3.88;;;1.40;;
75963;SDS011;65820;44.726;37.764;2023-02-01T06:19:19;3.72;;;1.38;;
75963;SDS011;65820;44.726;37.764;2023-02-01T06:20:20;3.65;;;1.20;;
75963;SDS011;65820;44.726;37.764;2023-02-01T06:21:23;3.25;;;1.23;;
75963;SDS011;65820;44.726;37.764;2023-02-01T06:22:25;3.60;;;1.20;;
75963;SDS011;65820;44.726;37.764;2023-02-01T06:23:26;3.72;;;1.23;;
75963;SDS011;65820;44.726;37.764;2023-02-01T06:24:31;3.80;;;1.20;;
75963;SDS011;65820;44.726;37.764;2023-02-01T06:25:32;3.53;;;1.40;;
75963;SDS011;65820;44.726;37.764;2023-02-01T06:26:34;3.05;;;1.10;;
75963;SDS011;65820;44.726;37.764;2023-02-01T06:27:35;4.15;;;1.50;;
75963;SDS011;65820;44.726;37.764;2023-02-01T06:28:36;3.60;;;1.33;;
75963;SDS011;65820;44.726;37.764;2023-02-01T06:29:39;4.90;;;1.25;;
75963;SDS011;65820;44.726;37.764;2023-02-01T06:30:40;3.50;;;1.13;;
75963;SDS011;65820;44.726;37.764;2023-02-01T06:31:46;4.15;;;1.27;;
75963;SDS011;65820;44.726;37.764;2023-02-01T06:32:50;3.35;;;1.17;;
75963;SDS011;65820;44.726;37.764;2023-02-01T06:33:54;3.45;;;1.60;;
75963;SDS011;65820;44.726;37.764;2023-02-01T06:34:56;4.82;;;1.48;;
75963;SDS011;65820;44.726;37.764;2023-02-01T06:35:58;3.88;;;1.48;;
75963;SDS011;65820;44.726;37.764;2023-02-01T06:37:00;4.15;;;1.17;;
75963;SDS011;65820;44.726;37.764;2023-02-01T06:38:01;3.67;;;1.30;;
75963;SDS011;65820;44.726;37.764;2023-02-01T06:39:03;3.00;;;1.17;;
75963;SDS011;65820;44.726;37.764;2023-02-01T06:40:06;3.45;;;1.33;;
75963;SDS011;65820;44.726;37.764;2023-02-01T06:41:09;2.97;;;1.15;;
75963;SDS011;65820;44.726;37.764;2023-02-01T06:42:11;3.67;;;1.20;;
75963;SDS011;65820;44.726;37.764;2023-02-01T06:43:13;3.78;;;1.50;;
75963;SDS011;65820;44.726;37.764;2023-02-01T06:44:14;3.92;;;1.23;;
75963;SDS011;65820;44.726;37.764;2023-02-01T06:45:16;4.78;;;1.10;;
75963;SDS011;65820;44.726;37.764;2023-02-01T06:47:53;3.65;;;1.33;;
75963;SDS011;65820;44.726;37.764;2023-02-01T06:48:54;4.95;;;1.52;;
75963;SDS011;65820;44.726;37.764;2023-02-01T06:49:56;3.75;;;1.33;;
75963;SDS011;65820;44.726;37.764;2023-02-01T06:50:57;3.22;;;1.70;;
75963;SDS011;65820;44.726;37.764;2023-02-01T06:52:47;4.15;;;1.55;;
75963;SDS011;65820;44.726;37.764;2023-02-01T06:53:48;3.63;;;1.50;;
75963;SDS011;65820;44.726;37.764;2023-02-01T06:54:50;4.00;;;1.30;;
75963;SDS011;65820;44.726;37.764;2023-02-01T06:55:58;3.35;;;1.40;;
75963;SDS011;65820;44.726;37.764;2023-02-01T06:57:03;3.22;;;1.40;;
75963;SDS011;65820;44.726;37.764;2023-02-01T06:58:05;4.07;;;1.75;;
75963;SDS011;65820;44.726;37.764;2023-02-01T06:59:09;1.92;;;0.98;;
75963;SDS011;65820;44.726;37.764;2023-02-01T07:00:11;3.15;;;1.10;;
75963;SDS011;65820;44.726;37.764;2023-02-01T07:01:13;3.28;;;1.33;;
75963;SDS011;65820;44.726;37.764;2023-02-01T07:02:14;6.15;;;1.42;;
75963;SDS011;65820;44.726;37.764;2023-02-01T07:03:16;3.67;;;1.35;;
75963;SDS011;65820;44.726;37.764;2023-02-01T07:04:17;4.63;;;1.50;;
75963;SDS011;65820;44.726;37.764;2023-02-01T07:05:19;3.88;;;1.23;;
75963;SDS011;65820;44.726;37.764;2023-02-01T07:06:23;4.82;;;1.10;;
75963;SDS011;65820;44.726;37.764;2023-02-01T07:07:24;3.05;;;1.42;;
75963;SDS011;65820;44.726;37.764;2023-02-01T07:08:29;3.38;;;1.23;;
75963;SDS011;65820;44.726;37.764;2023-02-01T07:09:31;4.40;;;1.30;;
75963;SDS011;65820;44.726;37.764;2023-02-01T07:10:33;4.13;;;1.10;;
75963;SDS011;65820;44.726;37.764;2023-02-01T07:11:35;3.28;;;1.33;;
75963;SDS011;65820;44.726;37.764;2023-02-01T07:12:38;2.58;;;1.23;;
75963;SDS011;65820;44.726;37.764;2023-02-01T07:13:39;3.50;;;1.65;;
75963;SDS011;65820;44.726;37.764;2023-02-01T07:14:41;4.60;;;1.58;;
75963;SDS011;65820;44.726;37.764;2023-02-01T07:15:42;3.45;;;1.35;;
75963;SDS011;65820;44.726;37.764;2023-02-01T07:16:43;4.63;;;1.27;;
75963;SDS011;65820;44.726;37.764;2023-02-01T07:17:45;2.85;;;1.35;;
75963;SDS011;65820;44.726;37.764;2023-02-01T07:19:34;3.63;;;1.30;;
75963;SDS011;65820;44.726;37.764;2023-02-01T07:20:36;4.68;;;1.60;;
75963;SDS011;65820;44.726;37.764;2023-02-01T07:21:37;6.15;;;1.63;;
75963;SDS011;65820;44.726;37.764;2023-02-01T07:22:41;7.15;;;1.50;;
75963;SDS011;65820;44.726;37.764;2023-02-01T07:23:45;5.57;;;1.63;;
75963;SDS011;65820;44.726;37.764;2023-02-01T07:24:47;5.30;;;1.48;;
75963;SDS011;65820;44.726;37.764;2023-02-01T07:25:48;5.63;;;1.50;;
75963;SDS011;65820;44.726;37.764;2023-02-01T07:26:49;5.25;;;1.48;;
75963;SDS011;65820;44.726;37.764;2023-02-01T07:27:51;5.60;;;1.50;;
75963;SDS011;65820;44.726;37.764;2023-02-01T07:28:56;3.60;;;1.17;;
75963;SDS011;65820;44.726;37.764;2023-02-01T07:29:57;4.78;;;1.42;;
75963;SDS011;65820;44.726;37.764;2023-02-01T07:31:03;5.18;;;1.65;;
75963;SDS011;65820;44.726;37.764;2023-02-01T07:33:13;4.32;;;1.58;;
75963;SDS011;65820;44.726;37.764;2023-02-01T07:34:14;5.25;;;1.38;;
75963;SDS011;65820;44.726;37.764;2023-02-01T07:35:16;5.15;;;1.75;;
75963;SDS011;65820;44.726;37.764;2023-02-01T07:36:18;4.28;;;1.40;;
75963;SDS011;65820;44.726;37.764;2023-02-01T07:37:19;3.83;;;1.33;;
75963;SDS011;65820;44.726;37.764;2023-02-01T07:38:21;5.38;;;1.60;;
75963;SDS011;65820;44.726;37.764;2023-02-01T07:39:24;4.55;;;1.50;;
75963;SDS011;65820;44.726;37.764;2023-02-01T07:40:28;6.13;;;2.00;;
75963;SDS011;65820;44.726;37.764;2023-02-01T07:41:31;7.90;;;1.73;;
75963;SDS011;65820;44.726;37.764;2023-02-01T07:42:32;3.53;;;1.30;;
75963;SDS011;65820;44.726;37.764;2023-02-01T07:43:35;5.95;;;1.33;;
75963;SDS011;65820;44.726;37.764;2023-02-01T07:44:36;6.05;;;1.65;;
75963;SDS011;65820;44.726;37.764;2023-02-01T07:45:38;3.80;;;1.42;;
75963;SDS011;65820;44.726;37.764;2023-02-01T07:46:39;5.72;;;1.73;;
75963;SDS011;65820;44.726;37.764;2023-02-01T07:47:40;5.03;;;1.70;;
75963;SDS011;65820;44.726;37.764;2023-02-01T07:48:44;3.88;;;1.35;;
75963;SDS011;65820;44.726;37.764;2023-02-01T07:49:48;6.03;;;1.60;;
75963;SDS011;65820;44.726;37.764;2023-02-01T07:50:59;5.47;;;1.67;;
75963;SDS011;65820;44.726;37.764;2023-02-01T07:52:02;2.97;;;1.33;;
75963;SDS011;65820;44.726;37.764;2023-02-01T07:53:04;3.75;;;1.50;;
75963;SDS011;65820;44.726;37.764;2023-02-01T07:54:05;5.97;;;1.90;;
75963;SDS011;65820;44.726;37.764;2023-02-01T07:55:07;4.40;;;1.48;;
75963;SDS011;65820;44.726;37.764;2023-02-01T07:56:13;5.18;;;1.48;;
75963;SDS011;65820;44.726;37.764;2023-02-01T07:57:15;5.55;;;1.48;;
75963;SDS011;65820;44.726;37.764;2023-02-01T07:58:17;5.15;;;1.50;;
75963;SDS011;65820;44.726;37.764;2023-02-01T07:59:18;4.70;;;1.58;;
75963;SDS011;65820;44.726;37.764;2023-02-01T08:00:19;4.53;;;1.80;;
75963;SDS011;65820;44.726;37.764;2023-02-01T08:01:39;3.88;;;1.50;;
75963;SDS011;65820;44.726;37.764;2023-02-01T08:02:41;4.75;;;1.27;;
75963;SDS011;65820;44.726;37.764;2023-02-01T08:03:42;3.42;;;1.20;;
75963;SDS011;65820;44.726;37.764;2023-02-01T08:04:43;4.22;;;1.67;;
75963;SDS011;65820;44.726;37.764;2023-02-01T08:05:45;4.65;;;1.40;;
75963;SDS011;65820;44.726;37.764;2023-02-01T08:06:46;3.92;;;1.40;;